createdAt,value
2018-03-04T00:00:06.124Z,80.19
2018-03-04T00:01:11.570Z,80.66
2018-03-04T00:02:16.120Z,80.95
2018-03-04T00:03:21.611Z,80.95
2018-03-04T00:04:27.121Z,80.57
2018-03-04T00:05:32.624Z,80.66
2018-03-04T00:06:39.147Z,80.57
2018-03-04T00:07:43.630Z,80.66
2018-03-04T00:08:49.151Z,80.95
2018-03-04T00:09:54.642Z,80.85
2018-03-04T00:11:00.133Z,80.62
2018-03-04T00:12:05.636Z,80.29
2018-03-04T00:13:13.071Z,80.52
2018-03-04T00:14:16.646Z,80.71
2018-03-04T00:15:22.185Z,80.33
2018-03-04T00:16:27.660Z,80.24
2018-03-04T00:17:33.151Z,80.43
2018-03-04T00:18:38.663Z,80.71
2018-03-04T00:19:45.161Z,80.43
2018-03-04T00:20:49.642Z,79.86
2018-03-04T00:21:55.163Z,79.95
2018-03-04T00:23:00.663Z,79.95
2018-03-04T00:24:06.168Z,80.43
2018-03-04T00:25:12.578Z,80.33
2018-03-04T00:26:18.182Z,80.24
2018-03-04T00:27:22.685Z,79.76
2018-03-04T00:28:28.181Z,79.76
2018-03-04T00:29:33.681Z,79.57
2018-03-04T00:30:39.620Z,79.29
2018-03-04T00:31:44.692Z,79.48
2018-03-04T00:32:51.202Z,79.57
2018-03-04T00:33:55.692Z,79.76
2018-03-04T00:35:01.193Z,79.38
2018-03-04T00:36:06.709Z,79.48
2018-03-04T00:37:12.206Z,79.48
2018-03-04T00:38:17.707Z,79.67
2018-03-04T00:39:24.219Z,79.19
2018-03-04T00:40:28.719Z,79.38
2018-03-04T00:41:34.213Z,79.29
2018-03-04T00:42:39.713Z,79.38
2018-03-04T00:43:45.221Z,79.57
2018-03-04T00:44:50.729Z,78.91
2018-03-04T00:45:57.238Z,79.00
2018-03-04T00:47:01.734Z,79.19
2018-03-04T00:48:07.241Z,79.00
2018-03-04T00:49:12.744Z,78.91
2018-03-04T00:50:18.243Z,79.00
2018-03-04T00:51:23.746Z,78.91
2018-03-04T00:52:30.265Z,78.91
2018-03-04T00:53:34.751Z,78.72
2018-03-04T00:54:40.293Z,78.81
2018-03-04T00:55:45.763Z,78.81
2018-03-04T00:56:51.261Z,78.63
2018-03-04T00:57:56.768Z,78.44
2018-03-04T00:59:03.292Z,78.44
2018-03-04T01:00:07.779Z,78.81
2018-03-04T01:01:13.273Z,78.67
2018-03-04T01:02:18.778Z,78.81
2018-03-04T01:03:24.239Z,78.53
2018-03-04T01:04:29.786Z,78.39
2018-03-04T01:05:36.307Z,78.44
2018-03-04T01:06:40.798Z,78.76
2018-03-04T01:07:46.299Z,78.58
2018-03-04T01:08:51.806Z,78.76
2018-03-04T01:09:57.332Z,78.58
2018-03-04T01:11:02.804Z,78.67
2018-03-04T01:12:09.327Z,78.67
2018-03-04T01:13:13.817Z,79.05
2018-03-04T01:14:19.321Z,79.24
2018-03-04T01:15:24.824Z,78.95
2018-03-04T01:16:30.428Z,78.95
2018-03-04T01:17:35.840Z,78.76
2018-03-04T01:18:42.350Z,78.95
2018-03-04T01:19:47.591Z,79.05
2018-03-04T01:20:52.348Z,79.05
2018-03-04T01:21:57.855Z,78.76
2018-03-04T01:23:03.354Z,78.86
2018-03-04T01:24:08.862Z,78.86
2018-03-04T01:25:15.377Z,79.43
2018-03-04T01:26:19.873Z,79.80
2018-03-04T01:27:25.374Z,79.71
2018-03-04T01:28:30.869Z,79.61
2018-03-04T01:29:37.093Z,79.80
2018-03-04T01:30:41.880Z,79.90
2018-03-04T01:31:49.093Z,79.71
2018-03-04T01:32:52.892Z,80.46
2018-03-04T01:33:58.392Z,80.08
2018-03-04T01:35:03.908Z,79.80
2018-03-04T01:36:09.411Z,80.18
2018-03-04T01:37:14.908Z,79.99
2018-03-04T01:38:22.101Z,79.80
2018-03-04T01:39:25.927Z,80.32
2018-03-04T01:40:31.418Z,80.22
2018-03-04T01:41:36.925Z,80.51
2018-03-04T01:42:42.428Z,80.69
2018-03-04T01:43:47.930Z,80.98
2018-03-04T01:44:54.450Z,81.26
2018-03-04T01:45:58.943Z,81.64
2018-03-04T01:47:04.460Z,81.64
2018-03-04T01:48:09.948Z,81.93
2018-03-04T01:49:15.463Z,82.21
2018-03-04T01:50:20.960Z,81.93
2018-03-04T01:51:27.473Z,82.02
2018-03-04T01:52:31.975Z,82.21
2018-03-04T01:53:38.098Z,81.49
2018-03-04T01:54:42.979Z,81.77
2018-03-04T01:55:48.480Z,81.59
2018-03-04T01:56:53.985Z,81.12
2018-03-04T01:58:00.576Z,81.21
2018-03-04T01:59:04.997Z,80.83
2018-03-04T02:00:10.502Z,80.55
2018-03-04T02:01:16.007Z,80.55
2018-03-04T02:02:21.517Z,80.26
2018-03-04T02:03:27.011Z,80.36
2018-03-04T02:04:33.530Z,80.07
2018-03-04T02:05:38.028Z,80.07
2018-03-04T02:06:43.529Z,80.26
2018-03-04T02:07:49.034Z,80.45
2018-03-04T02:08:54.544Z,80.07
2018-03-04T02:10:00.044Z,80.26
2018-03-04T02:11:06.566Z,80.36
2018-03-04T02:12:11.066Z,80.64
2018-03-04T02:13:16.560Z,80.58
2018-03-04T02:14:22.080Z,80.87
2018-03-04T02:15:27.569Z,80.49
2018-03-04T02:16:33.091Z,80.58
2018-03-04T02:17:39.599Z,80.68
2018-03-04T02:18:44.091Z,81.06
2018-03-04T02:19:49.589Z,81.06
2018-03-04T02:20:55.099Z,81.34
2018-03-04T02:22:00.616Z,81.15
2018-03-04T02:23:06.108Z,81.15
2018-03-04T02:24:12.630Z,81.15
2018-03-04T02:25:17.123Z,80.96
2018-03-04T02:26:22.624Z,80.87
2018-03-04T02:27:28.151Z,81.25
2018-03-04T02:28:33.636Z,80.87
2018-03-04T02:29:39.142Z,81.15
2018-03-04T02:30:45.661Z,81.44
2018-03-04T02:31:50.169Z,81.15
2018-03-04T02:32:55.661Z,80.96
2018-03-04T02:34:01.171Z,81.06
2018-03-04T02:35:06.686Z,80.87
2018-03-04T02:36:12.187Z,80.77
2018-03-04T02:37:18.696Z,80.96
2018-03-04T02:38:23.195Z,80.87
2018-03-04T02:39:28.702Z,81.06
2018-03-04T02:40:34.206Z,80.68
2018-03-04T02:41:39.710Z,80.87
2018-03-04T02:42:45.226Z,80.87
2018-03-04T02:43:51.730Z,80.87
2018-03-04T02:44:56.234Z,80.96
2018-03-04T02:46:01.721Z,81.06
2018-03-04T02:47:07.235Z,81.06
2018-03-04T02:48:12.747Z,81.15
2018-03-04T02:49:18.254Z,81.15
2018-03-04T02:50:24.773Z,81.25
2018-03-04T02:51:29.266Z,80.77
2018-03-04T02:52:34.770Z,80.77
2018-03-04T02:53:40.279Z,81.63
2018-03-04T02:54:45.794Z,80.96
2018-03-04T02:55:51.293Z,81.25
2018-03-04T02:56:57.811Z,80.58
2018-03-04T02:58:02.303Z,80.58
2018-03-04T02:59:07.805Z,80.96
2018-03-04T03:00:13.319Z,81.06
2018-03-04T03:01:18.826Z,80.77
2018-03-04T03:02:24.325Z,80.58
2018-03-04T03:03:30.850Z,80.68
2018-03-04T03:04:35.345Z,80.96
2018-03-04T03:05:40.900Z,81.06
2018-03-04T03:06:46.354Z,80.87
2018-03-04T03:07:51.861Z,80.68
2018-03-04T03:08:57.375Z,81.06
2018-03-04T03:10:03.880Z,80.40
2018-03-04T03:11:08.373Z,80.49
2018-03-04T03:12:13.884Z,80.40
2018-03-04T03:13:19.390Z,80.21
2018-03-04T03:14:24.892Z,80.49
2018-03-04T03:15:30.400Z,80.58
2018-03-04T03:16:36.919Z,80.58
2018-03-04T03:17:41.416Z,80.40
2018-03-04T03:18:46.923Z,80.87
2018-03-04T03:19:52.430Z,80.30
2018-03-04T03:20:57.925Z,80.58
2018-03-04T03:22:03.437Z,80.40
2018-03-04T03:23:09.952Z,80.40
2018-03-04T03:24:14.448Z,80.40
2018-03-04T03:25:19.963Z,80.40
2018-03-04T03:26:25.471Z,80.58
2018-03-04T03:27:30.982Z,80.40
2018-03-04T03:28:36.476Z,80.49
2018-03-04T03:29:43.000Z,80.49
2018-03-04T03:30:47.488Z,80.49
2018-03-04T03:31:53.002Z,80.49
2018-03-04T03:32:58.509Z,80.58
2018-03-04T03:34:04.084Z,80.49
2018-03-04T03:35:09.518Z,80.68
2018-03-04T03:36:16.037Z,80.77
2018-03-04T03:37:20.526Z,80.77
2018-03-04T03:38:26.050Z,80.77
2018-03-04T03:39:31.618Z,80.58
2018-03-04T03:40:37.046Z,80.87
2018-03-04T03:41:42.556Z,80.96
2018-03-04T03:42:49.077Z,80.58
2018-03-04T03:43:53.570Z,80.87
2018-03-04T03:44:59.070Z,81.25
2018-03-04T03:46:04.589Z,80.63
2018-03-04T03:47:10.094Z,80.77
2018-03-04T03:48:15.590Z,80.53
2018-03-04T03:49:22.108Z,80.53
2018-03-04T03:50:26.613Z,80.53
2018-03-04T03:51:32.118Z,80.72
2018-03-04T03:52:37.616Z,80.91
2018-03-04T03:53:43.121Z,79.93
2018-03-04T03:54:48.629Z,80.06
2018-03-04T03:55:55.152Z,80.15
2018-03-04T03:56:59.648Z,80.44
2018-03-04T03:58:05.160Z,80.53
2018-03-04T03:59:10.661Z,79.96
2018-03-04T04:01:21.897Z,79.83
2018-03-04T04:02:28.185Z,79.77
2018-03-04T04:03:32.680Z,79.87
2018-03-04T04:04:38.191Z,80.68
2018-03-04T04:05:43.701Z,80.44
2018-03-04T04:06:49.213Z,80.44
2018-03-04T04:07:54.720Z,80.21
2018-03-04T04:09:01.236Z,80.21
2018-03-04T04:10:05.727Z,80.34
2018-03-04T04:11:11.231Z,80.49
2018-03-04T04:12:16.729Z,80.82
2018-03-04T04:13:22.243Z,80.72
2018-03-04T04:14:27.831Z,80.25
2018-03-04T04:15:34.265Z,80.25
2018-03-04T04:16:38.768Z,80.44
2018-03-04T04:17:44.335Z,80.53
2018-03-04T04:18:49.790Z,79.87
2018-03-04T04:19:55.351Z,80.15
2018-03-04T04:21:00.794Z,80.34
2018-03-04T04:22:07.303Z,80.53
2018-03-04T04:23:11.800Z,80.72
2018-03-04T04:24:17.305Z,80.82
2018-03-04T04:25:22.823Z,79.58
2018-03-04T04:26:28.320Z,80.44
2018-03-04T04:27:33.840Z,80.44
2018-03-04T04:28:40.340Z,80.44
2018-03-04T04:29:44.848Z,80.72
2018-03-04T04:30:50.351Z,80.53
2018-03-04T04:31:55.851Z,80.53
2018-03-04T04:33:01.359Z,80.63
2018-03-04T04:34:06.863Z,80.34
2018-03-04T04:35:13.383Z,80.63
2018-03-04T04:36:17.882Z,80.72
2018-03-04T04:37:23.385Z,80.72
2018-03-04T04:38:28.893Z,79.68
2018-03-04T04:39:34.400Z,79.58
2018-03-04T04:40:39.913Z,80.53
2018-03-04T04:41:46.429Z,80.15
2018-03-04T04:42:50.926Z,80.34
2018-03-04T04:43:56.420Z,80.53
2018-03-04T04:45:01.927Z,80.53
2018-03-04T04:46:07.440Z,80.25
2018-03-04T04:47:12.941Z,80.34
2018-03-04T04:48:19.465Z,80.34
2018-03-04T04:49:23.960Z,80.34
2018-03-04T04:50:29.478Z,80.34
2018-03-04T04:51:34.967Z,80.34
2018-03-04T04:52:40.487Z,80.34
2018-03-04T04:53:45.985Z,80.25
2018-03-04T04:54:52.494Z,80.44
2018-03-04T04:55:56.996Z,80.53
2018-03-04T04:57:02.518Z,80.72
2018-03-04T04:58:08.013Z,80.06
2018-03-04T04:59:13.515Z,79.96
2018-03-04T05:00:19.027Z,79.96
2018-03-04T05:01:25.546Z,80.15
2018-03-04T05:02:30.059Z,79.87
2018-03-04T05:03:35.548Z,79.68
2018-03-04T05:04:41.052Z,79.77
2018-03-04T05:05:46.583Z,79.68
2018-03-04T05:06:52.070Z,79.68
2018-03-04T05:07:58.579Z,79.68
2018-03-04T05:09:03.080Z,79.58
2018-03-04T05:10:08.583Z,79.77
2018-03-04T05:11:14.096Z,79.39
2018-03-04T05:12:19.606Z,79.68
2018-03-04T05:13:25.107Z,79.49
2018-03-04T05:14:31.631Z,79.49
2018-03-04T05:15:36.119Z,79.58
2018-03-04T05:16:41.625Z,79.68
2018-03-04T05:17:47.139Z,79.58
2018-03-04T05:18:52.655Z,80.06
2018-03-04T05:19:58.146Z,79.87
2018-03-04T05:21:04.657Z,79.87
2018-03-04T05:22:09.172Z,80.06
2018-03-04T05:23:14.671Z,80.06
2018-03-04T05:24:20.179Z,79.77
2018-03-04T05:25:25.690Z,79.87
2018-03-04T05:26:31.185Z,80.25
2018-03-04T05:27:37.720Z,79.77
2018-03-04T05:28:42.201Z,80.53
2018-03-04T05:29:47.706Z,80.53
2018-03-04T05:30:53.211Z,80.44
2018-03-04T05:31:58.722Z,80.53
2018-03-04T05:33:04.230Z,80.82
2018-03-04T05:34:10.748Z,80.34
2018-03-04T05:35:15.240Z,80.44
2018-03-04T05:36:20.757Z,79.87
2018-03-04T05:37:26.258Z,79.87
2018-03-04T05:38:31.762Z,80.06
2018-03-04T05:39:37.271Z,79.68
2018-03-04T05:40:43.796Z,80.10
2018-03-04T05:41:48.280Z,80.06
2018-03-04T05:42:53.790Z,79.58
2018-03-04T05:43:59.297Z,79.68
2018-03-04T05:45:04.805Z,79.72
2018-03-04T05:46:10.312Z,79.53
2018-03-04T05:47:16.829Z,79.11
2018-03-04T05:48:21.323Z,79.02
2018-03-04T05:49:26.829Z,79.49
2018-03-04T05:50:32.343Z,79.58
2018-03-04T05:51:37.845Z,80.00
2018-03-04T05:52:43.353Z,80.15
2018-03-04T05:53:49.864Z,80.10
2018-03-04T05:54:54.370Z,80.19
2018-03-04T05:55:59.878Z,80.00
2018-03-04T05:57:05.406Z,80.10
2018-03-04T05:58:10.891Z,80.00
2018-03-04T05:59:16.396Z,80.10
2018-03-04T06:00:22.913Z,79.91
2018-03-04T06:01:27.421Z,80.19
2018-03-04T06:02:32.914Z,80.10
2018-03-04T06:03:38.419Z,80.00
2018-03-04T06:04:43.934Z,80.19
2018-03-04T06:05:49.444Z,79.91
2018-03-04T06:06:55.953Z,80.00
2018-03-04T06:08:00.484Z,80.19
2018-03-04T06:09:05.958Z,80.00
2018-03-04T06:10:11.466Z,80.00
2018-03-04T06:11:16.983Z,79.91
2018-03-04T06:12:22.485Z,80.29
2018-03-04T06:13:29.007Z,80.10
2018-03-04T06:14:33.488Z,80.10
2018-03-04T06:15:39.001Z,80.10
2018-03-04T06:16:44.508Z,80.00
2018-03-04T06:17:50.009Z,79.91
2018-03-04T06:18:55.524Z,80.00
2018-03-04T06:20:02.042Z,80.19
2018-03-04T06:21:06.533Z,80.00
2018-03-04T06:22:12.046Z,80.19
2018-03-04T06:23:17.556Z,79.91
2018-03-04T06:24:23.056Z,80.19
2018-03-04T06:25:28.561Z,79.82
2018-03-04T06:26:35.080Z,79.72
2018-03-04T06:27:39.584Z,79.53
2018-03-04T06:28:45.083Z,79.82
2018-03-04T06:29:50.591Z,79.44
2018-03-04T06:30:56.106Z,79.15
2018-03-04T06:32:01.613Z,79.63
2018-03-04T06:33:08.120Z,79.06
2018-03-04T06:34:12.618Z,79.15
2018-03-04T06:35:18.135Z,79.06
2018-03-04T06:36:23.635Z,79.15
2018-03-04T06:37:29.140Z,79.15
2018-03-04T06:38:34.646Z,79.72
2018-03-04T06:39:41.168Z,80.00
2018-03-04T06:40:45.677Z,80.00
2018-03-04T06:41:51.194Z,79.82
2018-03-04T06:42:56.676Z,79.82
2018-03-04T06:44:02.187Z,79.63
2018-03-04T06:45:07.752Z,79.53
2018-03-04T06:46:14.224Z,80.00
2018-03-04T06:47:18.711Z,79.63
2018-03-04T06:48:24.221Z,79.82
2018-03-04T06:49:29.728Z,79.82
2018-03-04T06:50:35.240Z,79.72
2018-03-04T06:51:40.743Z,79.63
2018-03-04T06:52:47.257Z,79.82
2018-03-04T06:53:51.753Z,79.63
2018-03-04T06:54:57.257Z,79.72
2018-03-04T06:56:02.726Z,79.72
2018-03-04T06:57:08.283Z,79.53
2018-03-04T06:58:13.783Z,79.53
2018-03-04T06:59:20.296Z,79.53
2018-03-04T07:00:24.798Z,79.72
2018-03-04T07:01:30.304Z,79.72
2018-03-04T07:02:35.814Z,79.63
2018-03-04T07:03:41.320Z,79.63
2018-03-04T07:04:46.825Z,79.63
2018-03-04T07:05:53.339Z,79.63
2018-03-04T07:06:57.847Z,79.63
2018-03-04T07:08:03.354Z,79.44
2018-03-04T07:09:08.859Z,79.15
2018-03-04T07:10:14.358Z,79.06
2018-03-04T07:11:19.871Z,79.06
2018-03-04T07:12:26.388Z,78.96
2018-03-04T07:13:30.883Z,79.06
2018-03-04T07:14:36.400Z,79.63
2018-03-04T07:15:41.893Z,79.15
2018-03-04T07:16:47.405Z,79.72
2018-03-04T07:17:52.917Z,79.34
2018-03-04T07:18:59.451Z,79.15
2018-03-04T07:20:03.932Z,79.34
2018-03-04T07:21:09.433Z,79.44
2018-03-04T07:22:14.943Z,79.44
2018-03-04T07:23:20.452Z,79.44
2018-03-04T07:24:25.957Z,79.25
2018-03-04T07:25:32.481Z,79.38
2018-03-04T07:26:36.975Z,79.15
2018-03-04T07:27:42.570Z,79.38
2018-03-04T07:28:47.996Z,79.15
2018-03-04T07:29:53.507Z,79.10
2018-03-04T07:30:59.054Z,79.25
2018-03-04T07:32:05.527Z,79.57
2018-03-04T07:33:10.017Z,79.19
2018-03-04T07:34:15.530Z,78.91
2018-03-04T07:35:21.034Z,79.10
2018-03-04T07:36:26.536Z,79.10
2018-03-04T07:37:32.053Z,79.38
2018-03-04T07:38:38.576Z,79.19
2018-03-04T07:39:43.080Z,79.47
2018-03-04T07:40:48.581Z,79.00
2018-03-04T07:41:54.077Z,78.91
2018-03-04T07:42:59.587Z,79.10
2018-03-04T07:44:05.102Z,78.81
2018-03-04T07:45:11.618Z,78.91
2018-03-04T07:46:16.111Z,79.19
2018-03-04T07:47:21.621Z,79.00
2018-03-04T07:48:27.129Z,78.91
2018-03-04T07:49:32.629Z,79.10
2018-03-04T07:50:38.149Z,78.81
2018-03-04T07:51:44.650Z,79.00
2018-03-04T07:52:49.153Z,79.00
2018-03-04T07:53:54.659Z,78.43
2018-03-04T07:55:00.172Z,78.62
2018-03-04T07:56:05.679Z,78.62
2018-03-04T07:57:11.191Z,78.34
2018-03-04T07:58:17.705Z,77.96
2018-03-04T07:59:22.198Z,77.86
2018-03-04T08:00:27.709Z,77.86
2018-03-04T08:01:33.209Z,78.05
2018-03-04T08:02:38.720Z,78.34
2018-03-04T08:03:44.229Z,78.15
2018-03-04T08:04:50.755Z,77.86
2018-03-04T08:05:55.354Z,77.77
2018-03-04T08:07:00.750Z,77.77
2018-03-04T08:08:06.264Z,78.15
2018-03-04T08:09:11.772Z,78.05
2018-03-04T08:10:17.267Z,77.86
2018-03-04T08:11:23.794Z,78.05
2018-03-04T08:12:28.304Z,77.96
2018-03-04T08:13:33.808Z,78.15
2018-03-04T08:14:39.316Z,77.62
2018-03-04T08:15:44.812Z,77.81
2018-03-04T08:16:50.323Z,77.14
2018-03-04T08:17:56.848Z,77.52
2018-03-04T08:19:01.345Z,77.05
2018-03-04T08:20:06.850Z,76.86
2018-03-04T08:21:12.351Z,77.24
2018-03-04T08:22:17.860Z,77.52
2018-03-04T08:23:23.370Z,76.95
2018-03-04T08:24:29.890Z,77.14
2018-03-04T08:25:34.384Z,76.20
2018-03-04T08:26:39.903Z,76.23
2018-03-04T08:27:45.403Z,76.04
2018-03-04T08:28:50.918Z,76.01
2018-03-04T08:29:56.413Z,76.23
2018-03-04T08:31:02.941Z,75.95
2018-03-04T08:32:07.431Z,75.67
2018-03-04T08:33:12.951Z,75.09
2018-03-04T08:34:18.442Z,75.47
2018-03-04T08:35:23.966Z,75.47
2018-03-04T08:36:29.475Z,75.38
2018-03-04T08:37:35.994Z,75.19
2018-03-04T08:38:40.515Z,75.57
2018-03-04T08:39:46.002Z,75.19
2018-03-04T08:40:51.500Z,74.71
2018-03-04T08:41:57.013Z,74.33
2018-03-04T08:43:02.517Z,74.33
2018-03-04T08:44:09.039Z,74.90
2018-03-04T08:45:13.541Z,75.00
2018-03-04T08:46:19.045Z,75.38
2018-03-04T08:47:24.556Z,75.00
2018-03-04T08:48:30.062Z,74.81
2018-03-04T08:49:35.567Z,75.00
2018-03-04T08:50:42.122Z,75.47
2018-03-04T08:51:46.641Z,75.70
2018-03-04T08:52:52.098Z,75.42
2018-03-04T08:53:57.628Z,74.85
2018-03-04T08:55:03.112Z,75.04
2018-03-04T08:56:08.623Z,75.42
2018-03-04T08:57:15.155Z,74.18
2018-03-04T08:58:19.648Z,73.71
2018-03-04T08:59:25.154Z,73.42
2018-03-04T09:00:30.657Z,73.18
2018-03-04T09:01:36.163Z,72.70
2018-03-04T09:02:41.672Z,71.52
2018-03-04T09:03:48.197Z,72.09
2018-03-04T09:04:52.695Z,72.28
2018-03-04T09:05:58.225Z,71.94
2018-03-04T09:07:03.713Z,71.94
2018-03-04T09:08:09.221Z,71.66
2018-03-04T09:09:14.722Z,71.84
2018-03-04T09:10:21.250Z,71.66
2018-03-04T09:11:25.742Z,71.81
2018-03-04T09:12:31.254Z,71.84
2018-03-04T09:13:36.758Z,71.66
2018-03-04T09:14:42.285Z,71.90
2018-03-04T09:15:47.790Z,71.94
2018-03-04T09:16:54.298Z,71.71
2018-03-04T09:17:58.795Z,71.62
2018-03-04T09:19:04.310Z,72.09
2018-03-04T09:20:09.820Z,71.71
2018-03-04T09:21:15.326Z,71.84
2018-03-04T09:22:20.838Z,72.03
2018-03-04T09:23:27.361Z,71.84
2018-03-04T09:24:31.869Z,72.13
2018-03-04T09:25:37.370Z,72.22
2018-03-04T09:26:42.874Z,72.13
2018-03-04T09:27:48.389Z,72.03
2018-03-04T09:28:53.899Z,72.03
2018-03-04T09:30:00.424Z,70.99
2018-03-04T09:31:04.913Z,70.51
2018-03-04T09:32:10.431Z,71.41
2018-03-04T09:33:15.957Z,71.18
2018-03-04T09:34:21.435Z,70.45
2018-03-04T09:35:26.955Z,71.22
2018-03-04T09:36:33.474Z,70.61
2018-03-04T09:37:37.980Z,70.64
2018-03-04T09:38:43.475Z,70.54
2018-03-04T09:39:48.988Z,70.54
2018-03-04T09:40:54.492Z,70.26
2018-03-04T09:42:00.012Z,70.45
2018-03-04T09:43:06.530Z,70.17
2018-03-04T09:44:11.036Z,69.98
2018-03-04T09:45:16.534Z,69.79
2018-03-04T09:46:22.052Z,69.50
2018-03-04T09:47:27.551Z,69.98
2018-03-04T09:48:33.072Z,69.88
2018-03-04T09:49:39.594Z,70.26
2018-03-04T09:50:44.083Z,69.98
2018-03-04T09:51:49.595Z,70.07
2018-03-04T09:52:55.099Z,69.98
2018-03-04T09:54:00.635Z,69.50
2018-03-04T09:55:06.124Z,69.21
2018-03-04T09:56:12.660Z,69.12
2018-03-04T09:57:17.164Z,69.12
2018-03-04T09:58:22.655Z,69.41
2018-03-04T09:59:28.166Z,69.21
2018-03-04T10:00:33.679Z,69.21
2018-03-04T10:01:39.205Z,69.35
2018-03-04T10:02:45.725Z,69.35
2018-03-04T10:03:50.208Z,69.35
2018-03-04T10:04:55.757Z,68.49
2018-03-04T10:06:01.224Z,68.68
2018-03-04T10:07:06.752Z,68.96
2018-03-04T10:08:12.251Z,68.68
2018-03-04T10:09:18.838Z,68.96
2018-03-04T10:10:23.465Z,68.40
2018-03-04T10:11:29.058Z,67.54
2018-03-04T10:12:34.480Z,68.59
2018-03-04T10:13:39.983Z,68.24
2018-03-04T10:14:45.510Z,67.67
2018-03-04T10:15:51.966Z,67.47
2018-03-04T10:16:56.341Z,67.67
2018-03-04T10:18:01.847Z,67.76
2018-03-04T10:19:07.352Z,66.62
2018-03-04T10:20:12.876Z,66.62
2018-03-04T10:21:18.367Z,66.24
2018-03-04T10:22:24.889Z,66.75
2018-03-04T10:23:29.400Z,65.89
2018-03-04T10:24:34.904Z,65.23
2018-03-04T10:25:40.431Z,65.42
2018-03-04T10:26:45.937Z,65.13
2018-03-04T10:27:51.450Z,64.84
2018-03-04T10:28:57.953Z,64.28
2018-03-04T10:30:02.456Z,64.47
2018-03-04T10:31:07.987Z,65.03
2018-03-04T10:32:13.488Z,65.23
2018-03-04T10:33:18.992Z,64.65
2018-03-04T10:34:24.504Z,64.84
2018-03-04T10:35:31.029Z,64.08
2018-03-04T10:36:35.544Z,64.08
2018-03-04T10:37:41.051Z,64.56
2018-03-04T10:38:46.561Z,64.08
2018-03-04T10:39:52.056Z,63.89
2018-03-04T10:40:57.575Z,64.56
2018-03-04T10:42:04.099Z,64.18
2018-03-04T10:43:08.608Z,64.59
2018-03-04T10:44:14.116Z,63.92
2018-03-04T10:45:19.638Z,64.21
2018-03-04T10:46:25.126Z,63.73
2018-03-04T10:47:30.663Z,62.78
2018-03-04T10:48:37.160Z,62.78
2018-03-04T10:49:41.681Z,62.78
2018-03-04T10:50:47.186Z,63.07
2018-03-04T10:51:52.696Z,62.97
2018-03-04T10:52:58.191Z,62.59
2018-03-04T10:54:03.720Z,62.59
2018-03-04T10:55:10.246Z,62.15
2018-03-04T10:56:14.737Z,62.34
2018-03-04T10:57:20.251Z,61.96
2018-03-04T10:58:25.751Z,61.19
2018-03-04T10:59:31.276Z,61.10
2018-03-04T11:00:36.787Z,61.00
2018-03-04T11:01:43.315Z,60.14
2018-03-04T11:02:47.805Z,60.65
2018-03-04T11:03:53.342Z,61.04
2018-03-04T11:04:58.839Z,60.65
2018-03-04T11:06:04.342Z,60.55
2018-03-04T11:07:09.863Z,60.75
2018-03-04T11:08:16.388Z,60.27
2018-03-04T11:09:20.877Z,59.22
2018-03-04T11:10:26.391Z,59.12
2018-03-04T11:11:31.946Z,59.79
2018-03-04T11:12:37.416Z,58.84
2018-03-04T11:13:42.920Z,59.79
2018-03-04T11:14:49.449Z,59.12
2018-03-04T11:15:53.962Z,58.55
2018-03-04T11:16:59.463Z,58.94
2018-03-04T11:18:04.978Z,58.65
2018-03-04T11:19:10.486Z,58.65
2018-03-04T11:20:16.014Z,58.46
2018-03-04T11:21:22.576Z,59.22
2018-03-04T11:22:27.033Z,59.51
2018-03-04T11:23:32.533Z,58.26
2018-03-04T11:24:38.054Z,59.12
2018-03-04T11:25:43.559Z,59.25
2018-03-04T11:26:49.083Z,58.39
2018-03-04T11:27:55.624Z,58.20
2018-03-04T11:29:00.106Z,58.68
2018-03-04T11:30:05.639Z,57.82
2018-03-04T11:31:11.127Z,57.24
2018-03-04T11:32:16.635Z,57.24
2018-03-04T11:33:22.163Z,57.06
2018-03-04T11:34:28.664Z,57.53
2018-03-04T11:35:33.198Z,57.46
2018-03-04T11:36:38.691Z,56.89
2018-03-04T11:37:44.197Z,57.56
2018-03-04T11:38:49.714Z,57.18
2018-03-04T11:39:55.218Z,56.32
2018-03-04T11:41:01.745Z,56.32
2018-03-04T11:42:06.250Z,55.68
2018-03-04T11:43:11.766Z,55.40
2018-03-04T11:44:17.276Z,55.11
2018-03-04T11:45:22.783Z,55.30
2018-03-04T11:46:28.304Z,54.53
2018-03-04T11:47:34.824Z,55.58
2018-03-04T11:48:39.326Z,54.91
2018-03-04T11:49:44.846Z,54.72
2018-03-04T11:50:50.352Z,54.63
2018-03-04T11:51:55.877Z,55.49
2018-03-04T11:53:01.388Z,55.40
2018-03-04T11:54:07.904Z,55.11
2018-03-04T11:55:12.409Z,55.30
2018-03-04T11:56:17.918Z,55.40
2018-03-04T11:57:23.434Z,54.34
2018-03-04T11:58:28.943Z,54.44
2018-03-04T11:59:34.464Z,54.72
2018-03-04T12:00:41.009Z,54.63
2018-03-04T12:01:45.489Z,53.80
2018-03-04T12:02:50.995Z,53.61
2018-03-04T12:03:56.510Z,53.61
2018-03-04T12:05:02.008Z,53.32
2018-03-04T12:06:07.543Z,53.61
2018-03-04T12:07:14.061Z,53.41
2018-03-04T12:08:18.571Z,52.94
2018-03-04T12:09:24.086Z,53.51
2018-03-04T12:10:29.591Z,53.13
2018-03-04T12:11:35.131Z,53.70
2018-03-04T12:12:40.614Z,53.89
2018-03-04T12:13:47.150Z,53.70
2018-03-04T12:14:51.650Z,53.80
2018-03-04T12:15:57.158Z,53.16
2018-03-04T12:17:02.680Z,52.96
2018-03-04T12:18:08.188Z,52.20
2018-03-04T12:19:13.749Z,52.67
2018-03-04T12:20:20.223Z,52.01
2018-03-04T12:21:24.734Z,52.39
2018-03-04T12:22:30.248Z,51.62
2018-03-04T12:23:35.760Z,52.10
2018-03-04T12:24:41.269Z,51.93
2018-03-04T12:25:46.786Z,51.36
2018-03-04T12:26:53.305Z,49.55
2018-03-04T12:27:57.812Z,50.02
2018-03-04T12:29:03.326Z,50.02
2018-03-04T12:30:08.902Z,49.57
2018-03-04T12:31:14.360Z,49.66
2018-03-04T12:32:19.869Z,47.87
2018-03-04T12:33:26.398Z,47.68
2018-03-04T12:34:30.907Z,47.80
2018-03-04T12:35:36.410Z,46.67
2018-03-04T12:36:41.948Z,44.11
2018-03-04T12:37:47.446Z,44.37
2018-03-04T12:38:52.963Z,42.49
2018-03-04T12:39:59.496Z,40.45
2018-03-04T12:41:03.994Z,36.27
2018-03-04T12:42:09.513Z,34.58
2018-03-04T12:43:15.023Z,31.93
2018-03-04T12:44:20.546Z,31.20
2018-03-04T12:45:26.074Z,27.56
2018-03-04T12:46:32.583Z,25.16
2018-03-04T12:47:37.085Z,23.54
2018-03-04T12:48:42.619Z,22.69
2018-03-04T12:49:48.117Z,21.34
2018-03-04T12:50:53.623Z,20.15
2018-03-04T12:51:59.150Z,21.20
2018-03-04T12:53:05.691Z,21.47
2018-03-04T12:54:10.184Z,21.94
2018-03-04T12:55:15.705Z,22.64
2018-03-04T12:56:21.225Z,21.80
2018-03-04T12:57:26.858Z,21.44
2018-03-04T12:58:32.268Z,19.71
2018-03-04T12:59:38.894Z,17.39
2018-03-04T13:00:43.427Z,15.84
2018-03-04T13:01:48.848Z,14.69
2018-03-04T13:02:54.367Z,13.91
2018-03-04T13:03:59.880Z,12.85
2018-03-04T13:05:05.407Z,12.46
2018-03-04T13:06:11.934Z,13.45
2018-03-04T13:07:16.468Z,11.98
2018-03-04T13:08:21.980Z,12.18
2018-03-04T13:09:27.530Z,11.40
2018-03-04T13:10:33.039Z,11.32
2018-03-04T13:11:38.577Z,11.41
2018-03-04T13:12:45.100Z,10.92
2018-03-04T13:13:49.620Z,11.21
2018-03-04T13:14:55.142Z,11.00
2018-03-04T13:16:00.668Z,11.30
2018-03-04T13:17:06.234Z,11.40
2018-03-04T13:18:11.725Z,10.62
2018-03-04T13:19:18.277Z,10.82
2018-03-04T13:20:22.782Z,9.65
2018-03-04T13:21:28.310Z,10.05
2018-03-04T13:22:33.842Z,9.75
2018-03-04T13:23:39.365Z,9.95
2018-03-04T13:24:44.892Z,9.27
2018-03-04T13:25:51.438Z,8.67
2018-03-04T13:26:55.954Z,9.27
2018-03-04T13:28:01.490Z,8.28
2018-03-04T13:29:07.024Z,8.19
2018-03-04T13:30:12.543Z,7.80
2018-03-04T13:31:18.068Z,7.90
2018-03-04T13:32:24.606Z,7.21
2018-03-04T13:33:29.151Z,7.79
2018-03-04T13:34:34.650Z,7.98
2018-03-04T13:35:40.201Z,8.28
2018-03-04T13:36:45.729Z,7.87
2018-03-04T13:37:51.272Z,8.27
2018-03-04T13:38:57.796Z,8.28
2018-03-04T13:40:02.335Z,7.88
2018-03-04T13:41:07.848Z,7.68
2018-03-04T13:42:13.370Z,7.88
2018-03-04T13:43:18.900Z,7.98
2018-03-04T13:44:24.424Z,8.26
2018-03-04T13:45:30.972Z,8.75
2018-03-04T13:46:35.478Z,9.23
2018-03-04T13:47:41.025Z,9.63
2018-03-04T13:48:46.554Z,8.65
2018-03-04T13:49:52.102Z,8.65
2018-03-04T13:50:57.619Z,8.75
2018-03-04T13:52:04.155Z,9.14
2018-03-04T13:53:08.669Z,9.05
2018-03-04T13:54:14.216Z,8.95
2018-03-04T13:55:19.737Z,8.26
2018-03-04T13:56:25.263Z,8.07
2018-03-04T13:57:30.795Z,8.26
2018-03-04T13:58:37.326Z,8.16
2018-03-04T13:59:41.863Z,8.26
2018-03-04T14:00:47.380Z,8.84
2018-03-04T14:01:52.986Z,9.12
2018-03-04T14:02:58.449Z,9.51
2018-03-04T14:04:03.973Z,10.28
2018-03-04T14:05:10.511Z,11.34